createdAt,value
2022-10-14T00:01:07.094Z,0.7
2022-10-14T00:02:15.862Z,0.8
2022-10-14T00:03:24.461Z,0.7
2022-10-14T00:04:34.294Z,0.6
2022-10-14T00:05:42.957Z,0.9
2022-10-14T00:06:51.621Z,0.9
2022-10-14T00:08:01.324Z,0.8
2022-10-14T00:09:10.006Z,0.7
2022-10-14T00:10:19.688Z,0.7
2022-10-14T00:11:29.342Z,0.7
2022-10-14T00:12:37.001Z,0.8
2022-10-14T00:13:46.686Z,0.9
2022-10-14T00:14:54.342Z,0.8
2022-10-14T00:16:03.999Z,0.9
2022-10-14T00:17:13.652Z,1
2022-10-14T00:18:21.315Z,0.7
2022-10-14T00:19:31.008Z,0.8
2022-10-14T00:20:39.710Z,0.7
2022-10-14T00:21:47.372Z,0.7
2022-10-14T00:22:57.038Z,0.7
2022-10-14T00:24:06.718Z,0.7
2022-10-14T00:25:16.355Z,0.9
2022-10-14T00:26:26.048Z,0.7
2022-10-14T00:27:33.694Z,0.7
2022-10-14T00:28:43.394Z,0.5
2022-10-14T00:29:53.037Z,0.6
2022-10-14T00:31:01.869Z,0.5
2022-10-14T00:32:11.541Z,0.7
2022-10-14T00:33:20.218Z,0.6
2022-10-14T00:34:30.691Z,0.6
2022-10-14T00:35:39.549Z,0.5
2022-10-14T00:36:47.261Z,0.5
2022-10-14T00:37:56.966Z,0.6
2022-10-14T00:39:06.656Z,0.5
2022-10-14T00:40:15.325Z,0.6
2022-10-14T00:41:23.968Z,0.7
2022-10-14T00:42:33.607Z,0.4
2022-10-14T00:43:41.277Z,0.5
2022-10-14T00:44:50.955Z,0.7
2022-10-14T00:45:59.674Z,0.7
2022-10-14T00:47:08.342Z,0.8
2022-10-14T00:48:17.995Z,0.5
2022-10-14T00:49:26.676Z,0.5
2022-10-14T00:50:35.335Z,0.4
2022-10-14T00:51:44.981Z,0.4
2022-10-14T00:52:52.624Z,0.6
2022-10-14T00:54:02.333Z,0.4
2022-10-14T00:55:10.987Z,0.6
2022-10-14T00:56:20.698Z,0.7
2022-10-14T00:57:29.343Z,0.4
2022-10-14T00:58:38.085Z,0.5
2022-10-14T00:59:46.779Z,0.6
2022-10-14T01:00:56.544Z,0.6
2022-10-14T01:02:04.164Z,0.4
2022-10-14T01:03:13.809Z,0.5
2022-10-14T01:04:23.516Z,0.6
2022-10-14T01:05:31.169Z,0.3
2022-10-14T01:06:40.843Z,0.4
2022-10-14T01:07:49.599Z,0.4
2022-10-14T01:08:58.203Z,0.4
2022-10-14T01:10:07.854Z,0.4
2022-10-14T01:11:16.509Z,0.4
2022-10-14T01:12:30.004Z,0.4
2022-10-14T01:13:36.806Z,0.4
2022-10-14T01:14:44.500Z,0.3
2022-10-14T01:15:53.173Z,0.5
2022-10-14T01:17:01.811Z,0.3
2022-10-14T01:18:10.501Z,0.4
2022-10-14T01:19:20.163Z,0.4
2022-10-14T01:20:28.842Z,0.4
2022-10-14T01:21:37.526Z,0.4
2022-10-14T01:22:46.173Z,0.4
2022-10-14T01:23:53.879Z,0.4
2022-10-14T01:25:03.542Z,0.5
2022-10-14T01:26:11.204Z,0.6
2022-10-14T01:27:20.859Z,0.4
2022-10-14T01:28:30.628Z,0.4
2022-10-14T01:29:39.327Z,0.4
2022-10-14T01:30:49.010Z,0.6
2022-10-14T01:31:58.680Z,0.3
2022-10-14T01:33:06.335Z,0.3
2022-10-14T01:34:16.008Z,0.4
2022-10-14T01:35:23.732Z,0.4
2022-10-14T01:36:32.418Z,0.4
2022-10-14T01:37:42.060Z,0.3
2022-10-14T01:38:49.721Z,0.4
2022-10-14T01:39:59.401Z,0.6
2022-10-14T01:41:08.122Z,0.3
2022-10-14T01:42:16.804Z,0.7
2022-10-14T01:43:26.463Z,0.4
2022-10-14T01:44:35.186Z,0.4
2022-10-14T01:45:43.810Z,0.4
2022-10-14T01:46:53.486Z,0.3
2022-10-14T01:48:04.164Z,0.3
2022-10-14T01:49:13.833Z,0.3
2022-10-14T01:50:23.610Z,0.4
2022-10-14T01:51:33.256Z,0.3
2022-10-14T01:52:42.956Z,0.4
2022-10-14T01:53:50.598Z,0.6
2022-10-14T01:55:00.276Z,0.4
2022-10-14T01:56:09.964Z,0.4
2022-10-14T01:57:17.646Z,0.5
2022-10-14T01:58:27.348Z,0.3
2022-10-14T01:59:36.093Z,0.4
2022-10-14T02:00:45.800Z,0.4
2022-10-14T02:01:55.504Z,0.2
2022-10-14T02:03:03.172Z,0.4
2022-10-14T02:04:11.830Z,0.4
2022-10-14T02:05:21.525Z,0.4
2022-10-14T02:06:29.195Z,0.3
2022-10-14T02:07:37.846Z,0.5
2022-10-14T02:08:46.499Z,0.4
2022-10-14T02:09:54.184Z,0.4
2022-10-14T02:11:03.830Z,0.6
2022-10-14T02:12:12.511Z,0.4
2022-10-14T02:13:21.161Z,0.5
2022-10-14T02:14:30.825Z,0.4
2022-10-14T02:15:39.652Z,0.4
2022-10-14T02:16:49.367Z,0.4
2022-10-14T02:17:58.002Z,0.4
2022-10-14T02:19:05.656Z,0.5
2022-10-14T02:20:15.355Z,0.4
2022-10-14T02:21:23.038Z,0.4
2022-10-14T02:22:31.711Z,0.4
2022-10-14T02:23:41.409Z,0.5
2022-10-14T02:24:49.074Z,0.4
2022-10-14T02:25:58.737Z,0.5
2022-10-14T02:27:07.424Z,0.5
2022-10-14T02:28:16.147Z,0.4
2022-10-14T02:29:26.753Z,0.3
2022-10-14T02:30:35.456Z,0.2
2022-10-14T02:31:44.134Z,0.4
2022-10-14T02:32:52.853Z,0.4
2022-10-14T02:34:01.471Z,0.4
2022-10-14T02:35:10.130Z,0.3
2022-10-14T02:36:18.790Z,0.3
2022-10-14T02:37:28.469Z,0.4
2022-10-14T02:38:37.182Z,0.2
2022-10-14T02:39:46.892Z,0.2
2022-10-14T02:40:54.538Z,0.3
2022-10-14T02:42:04.203Z,0.3
2022-10-14T02:43:13.862Z,0.2
2022-10-14T02:44:22.551Z,0.3
2022-10-14T02:45:32.245Z,0.4
2022-10-14T02:46:40.914Z,0.3
2022-10-14T02:47:49.594Z,0.5
2022-10-14T02:48:59.305Z,0.4
2022-10-14T02:50:07.018Z,0.3
2022-10-14T02:51:16.704Z,0.6
2022-10-14T02:52:26.394Z,0.4
2022-10-14T02:53:34.056Z,0.4
2022-10-14T02:54:43.725Z,0.4
2022-10-14T02:55:51.433Z,0.4
2022-10-14T02:57:00.102Z,0.4
2022-10-14T02:58:09.791Z,0.4
2022-10-14T02:59:18.461Z,0.4
2022-10-14T03:00:28.124Z,0.5
2022-10-14T03:01:38.103Z,0.4
2022-10-14T03:02:46.459Z,0.5
2022-10-14T03:03:56.121Z,0.4
2022-10-14T03:05:04.816Z,0.4
2022-10-14T03:06:13.451Z,0.3
2022-10-14T03:07:23.251Z,0.3
2022-10-14T03:08:30.923Z,0.3
2022-10-14T03:09:40.577Z,0.3
2022-10-14T03:10:49.234Z,0.3
2022-10-14T03:11:56.897Z,0.3
2022-10-14T03:13:06.606Z,0.4
2022-10-14T03:14:16.287Z,0.3
2022-10-14T03:15:24.952Z,0.6
2022-10-14T03:16:34.630Z,0.3
2022-10-14T03:17:42.306Z,0.4
2022-10-14T03:18:52.163Z,0.3
2022-10-14T03:20:00.837Z,0.3
2022-10-14T03:21:10.620Z,0.6
2022-10-14T03:22:20.611Z,0.3
2022-10-14T03:23:27.913Z,0.3
2022-10-14T03:24:37.612Z,0.3
2022-10-14T03:25:47.276Z,0.4
2022-10-14T03:26:56.925Z,0.3
2022-10-14T03:28:06.614Z,0.5
2022-10-14T03:29:15.314Z,0.4
2022-10-14T03:30:24.048Z,0.4
2022-10-14T03:31:33.716Z,0.3
2022-10-14T03:32:43.400Z,0.3
2022-10-14T03:33:53.066Z,0.4
2022-10-14T03:35:02.729Z,0.5
2022-10-14T03:36:12.541Z,0.3
2022-10-14T03:37:22.258Z,0.5
2022-10-14T03:38:30.927Z,0.4
2022-10-14T03:39:38.574Z,0.4
2022-10-14T03:40:47.266Z,0.4
2022-10-14T03:41:54.948Z,0.3
2022-10-14T03:43:03.604Z,0.3
2022-10-14T03:44:13.266Z,0.3
2022-10-14T03:45:21.943Z,0.3
2022-10-14T03:46:31.603Z,0.3
2022-10-14T03:47:40.273Z,0.3
2022-10-14T03:48:47.939Z,0.4
2022-10-14T03:49:57.622Z,0.2
2022-10-14T03:51:06.297Z,0.4
2022-10-14T03:52:16.033Z,0.3
2022-10-14T03:53:25.736Z,0.2
2022-10-14T03:54:35.405Z,0.2
2022-10-14T03:55:45.083Z,0.3
2022-10-14T03:56:53.736Z,0.2
2022-10-14T03:58:01.391Z,0.2
2022-10-14T03:59:11.105Z,0.3
2022-10-14T04:00:18.819Z,0.6
2022-10-14T04:01:27.545Z,0.3
2022-10-14T04:02:37.222Z,0.4
2022-10-14T04:03:46.886Z,0.3
2022-10-14T04:05:00.695Z,0.4
2022-10-14T04:06:06.259Z,0.4
2022-10-14T04:07:14.944Z,0.3
2022-10-14T04:08:24.634Z,0.2
2022-10-14T04:09:34.356Z,0.3
2022-10-14T04:10:42.998Z,0.3
2022-10-14T04:11:52.657Z,0.2
2022-10-14T04:13:00.361Z,0.3
2022-10-14T04:14:10.030Z,0.3
2022-10-14T04:15:18.697Z,0.2
2022-10-14T04:16:27.371Z,0.3
2022-10-14T04:17:37.072Z,0.2
2022-10-14T04:18:44.751Z,0.2
2022-10-14T04:19:53.456Z,0.3
2022-10-14T04:21:03.148Z,0.2
2022-10-14T04:22:10.937Z,0.4
2022-10-14T04:23:20.620Z,0.3
2022-10-14T04:24:29.285Z,0.2
2022-10-14T04:25:38.977Z,0.3
2022-10-14T04:26:48.700Z,0.2
2022-10-14T04:27:58.411Z,0.2
2022-10-14T04:29:07.144Z,0.2
2022-10-14T04:30:16.896Z,0.2
2022-10-14T04:31:26.558Z,0.3
2022-10-14T04:32:36.263Z,0.2
2022-10-14T04:33:46.001Z,0.2
2022-10-14T04:34:54.705Z,0.2
2022-10-14T04:36:03.361Z,0.2
2022-10-14T04:37:13.020Z,0.4
2022-10-14T04:38:22.703Z,0.3
2022-10-14T04:39:32.524Z,0.3
2022-10-14T04:40:42.275Z,0.2
2022-10-14T04:41:49.935Z,0.2
2022-10-14T04:42:59.627Z,0.2
2022-10-14T04:44:07.312Z,0.3
2022-10-14T04:45:15.975Z,0.2
2022-10-14T04:46:25.657Z,0.3
2022-10-14T04:47:33.311Z,0.3
2022-10-14T04:48:43.007Z,0.2
2022-10-14T04:49:51.711Z,0.2
2022-10-14T04:51:00.484Z,0.2
2022-10-14T04:52:10.112Z,0.3
2022-10-14T04:53:22.234Z,0.2
2022-10-14T04:54:30.444Z,0.3
2022-10-14T04:55:40.146Z,0.2
2022-10-14T04:56:49.894Z,0.2
2022-10-14T04:57:59.608Z,0.2
2022-10-14T04:59:09.332Z,0.2
2022-10-14T05:00:18.998Z,0.3
2022-10-14T05:01:32.996Z,0.2
2022-10-14T05:02:37.342Z,0.3
2022-10-14T05:03:47.012Z,0.3
2022-10-14T05:04:55.724Z,0.4
2022-10-14T05:06:04.421Z,0.4
2022-10-14T05:07:14.123Z,0.4
2022-10-14T05:08:22.796Z,0.4
2022-10-14T05:09:30.501Z,0.3
2022-10-14T05:10:40.174Z,0.2
2022-10-14T05:11:47.842Z,0.2
2022-10-14T05:12:57.539Z,0.3
2022-10-14T05:14:07.217Z,0.3
2022-10-14T05:15:14.877Z,0.3
2022-10-14T05:16:24.554Z,0.3
2022-10-14T05:17:33.216Z,0.2
2022-10-14T05:18:41.860Z,0.3
2022-10-14T05:19:51.557Z,0.2
2022-10-14T05:20:59.202Z,0.2
2022-10-14T05:22:08.859Z,0.2
2022-10-14T05:23:18.513Z,0.2
2022-10-14T05:24:27.165Z,0.2
2022-10-14T05:25:36.976Z,0.4
2022-10-14T05:26:45.664Z,0.3
2022-10-14T05:27:53.306Z,0.2
2022-10-14T05:29:03.009Z,0.3
2022-10-14T05:30:11.643Z,0.3
2022-10-14T05:31:20.319Z,0.3
2022-10-14T05:32:28.975Z,0.2
2022-10-14T05:33:36.655Z,0.2
2022-10-14T05:34:46.340Z,0.2
2022-10-14T05:35:59.850Z,0.5
2022-10-14T05:37:04.663Z,0.2
2022-10-14T05:38:14.379Z,0.2
2022-10-14T05:39:23.095Z,0.3
2022-10-14T05:40:31.791Z,0.3
2022-10-14T05:41:40.494Z,0.3
2022-10-14T05:42:48.343Z,0.3
2022-10-14T05:43:57.057Z,0.3
2022-10-14T05:45:05.829Z,0.2
2022-10-14T05:46:14.417Z,0.3
2022-10-14T05:47:24.133Z,0.2
2022-10-14T05:48:32.848Z,0.2
2022-10-14T05:49:41.507Z,0.2
2022-10-14T05:50:51.240Z,0.3
2022-10-14T05:51:59.916Z,0.5
2022-10-14T05:53:09.673Z,0.3
2022-10-14T05:54:19.466Z,0.4
2022-10-14T05:55:28.130Z,0.4
2022-10-14T05:56:37.824Z,0.4
2022-10-14T05:57:45.621Z,0.5
2022-10-14T05:58:55.299Z,0.4
2022-10-14T06:00:04.991Z,0.5
2022-10-14T06:01:14.725Z,0.5
2022-10-14T06:02:24.683Z,0.4
2022-10-14T06:03:34.133Z,0.6
2022-10-14T06:04:43.789Z,0.4
2022-10-14T06:05:53.472Z,0.4
2022-10-14T06:07:02.138Z,0.5
2022-10-14T06:08:10.815Z,0.4
2022-10-14T06:09:20.475Z,0.4
2022-10-14T06:10:30.124Z,0.4
2022-10-14T06:11:39.847Z,0.3
2022-10-14T06:12:48.517Z,0.3
2022-10-14T06:13:56.153Z,0.4
2022-10-14T06:15:05.877Z,0.3
2022-10-14T06:16:13.569Z,0.4
2022-10-14T06:17:23.276Z,0.3
2022-10-14T06:18:32.910Z,0.3
2022-10-14T06:19:40.573Z,0.5
2022-10-14T06:20:50.296Z,0.7
2022-10-14T06:21:58.966Z,0.5
2022-10-14T06:23:06.629Z,0.5
2022-10-14T06:24:16.310Z,0.6
2022-10-14T06:25:25.016Z,0.6
2022-10-14T06:26:34.684Z,0.5
2022-10-14T06:27:43.352Z,0.6
2022-10-14T06:28:52.212Z,0.6
2022-10-14T06:30:01.854Z,0.7
2022-10-14T06:31:10.523Z,0.6
2022-10-14T06:32:18.208Z,0.5
2022-10-14T06:33:27.967Z,0.6
2022-10-14T06:34:37.692Z,0.6
2022-10-14T06:35:45.355Z,0.7
2022-10-14T06:36:58.570Z,0.7
2022-10-14T06:38:03.704Z,0.6
2022-10-14T06:39:11.397Z,0.8
2022-10-14T06:40:21.114Z,0.6
2022-10-14T06:41:28.755Z,0.6
2022-10-14T06:42:38.451Z,0.6
2022-10-14T06:43:47.107Z,0.6
2022-10-14T06:44:55.761Z,0.5
2022-10-14T06:46:05.571Z,0.6
2022-10-14T06:47:14.285Z,0.6
2022-10-14T06:48:22.974Z,0.8
2022-10-14T06:49:32.652Z,0.6
2022-10-14T06:50:41.310Z,0.6
2022-10-14T06:51:50.032Z,0.7
2022-10-14T06:52:59.680Z,0.5
2022-10-14T06:54:07.343Z,0.6
2022-10-14T06:55:17.020Z,0.5
2022-10-14T06:56:25.700Z,0.5
2022-10-14T06:57:33.427Z,0.5
2022-10-14T06:58:43.083Z,0.4
2022-10-14T06:59:51.743Z,0.5
2022-10-14T07:01:01.402Z,0.6
2022-10-14T07:02:11.076Z,0.4
2022-10-14T07:03:18.771Z,0.6
2022-10-14T07:04:27.447Z,0.4
2022-10-14T07:05:36.137Z,0.4
2022-10-14T07:06:44.806Z,0.2
2022-10-14T07:07:54.538Z,0.3
2022-10-14T07:09:03.164Z,0.4
2022-10-14T07:10:11.813Z,0.4
2022-10-14T07:11:21.463Z,0.4
2022-10-14T07:12:30.171Z,0.4
2022-10-14T07:13:39.802Z,0.5
2022-10-14T07:14:48.507Z,0.6
2022-10-14T07:15:57.164Z,0.8
2022-10-14T07:17:06.812Z,0.6
2022-10-14T07:18:15.488Z,0.6
2022-10-14T07:19:24.136Z,0.7
2022-10-14T07:20:33.834Z,0.8
2022-10-14T07:21:43.555Z,0.6
2022-10-14T07:22:53.218Z,0.6
2022-10-14T07:24:01.884Z,0.7
2022-10-14T07:25:09.542Z,0.7
2022-10-14T07:26:19.293Z,0.8
2022-10-14T07:27:26.950Z,0.8
2022-10-14T07:28:35.734Z,0.5
2022-10-14T07:29:45.308Z,0.6
2022-10-14T07:30:52.965Z,0.6
2022-10-14T07:32:02.863Z,0.7
2022-10-14T07:33:11.513Z,0.6
2022-10-14T07:34:21.179Z,0.5
2022-10-14T07:35:30.885Z,0.4
2022-10-14T07:36:39.590Z,0.3
2022-10-14T07:37:49.336Z,0.4
2022-10-14T07:38:58.983Z,0.7
2022-10-14T07:40:08.657Z,0.3
2022-10-14T07:41:18.352Z,0.6
2022-10-14T07:42:27.992Z,0.5
2022-10-14T07:43:36.680Z,0.4
2022-10-14T07:44:46.395Z,0.5
2022-10-14T07:45:54.062Z,0.3
2022-10-14T07:47:02.721Z,0.3
2022-10-14T07:48:12.402Z,0.5
2022-10-14T07:49:20.211Z,0.4
2022-10-14T07:50:29.882Z,0.6
2022-10-14T07:51:39.556Z,0.2
2022-10-14T07:52:48.744Z,0.2
2022-10-14T07:53:58.435Z,0.4
2022-10-14T07:55:06.151Z,0.3
2022-10-14T07:56:14.803Z,0.3
2022-10-14T07:57:25.110Z,0.3
2022-10-14T07:58:33.179Z,0.2
2022-10-14T07:59:42.871Z,0.3
2022-10-14T08:00:52.556Z,0.3
2022-10-14T08:02:00.382Z,0.5
2022-10-14T08:03:09.927Z,0.3
2022-10-14T08:04:18.621Z,0.4
2022-10-14T08:05:43.569Z,0.6
2022-10-14T08:06:38.934Z,0.4
2022-10-14T08:07:46.622Z,0.4
2022-10-14T08:08:56.309Z,0.3
2022-10-14T08:10:05.009Z,0.3
2022-10-14T08:11:12.655Z,0.7
2022-10-14T08:12:22.737Z,1.1
2022-10-14T08:13:31.020Z,0.9
2022-10-14T08:14:39.684Z,0.7
2022-10-14T08:15:49.347Z,0.7
2022-10-14T08:16:57.024Z,0.5
2022-10-14T08:18:06.731Z,1.4
2022-10-14T08:19:16.496Z,0.6
2022-10-14T08:20:25.289Z,1.1
2022-10-14T08:21:35.082Z,1.4
2022-10-14T08:22:43.969Z,0.4
2022-10-14T08:23:52.681Z,0.5
2022-10-14T08:25:02.378Z,0.5
2022-10-14T08:26:12.082Z,0.4
2022-10-14T08:27:21.731Z,0.4
2022-10-14T08:28:31.537Z,0.3
2022-10-14T08:29:40.114Z,0.3
2022-10-14T08:30:48.797Z,0.2
2022-10-14T08:31:58.589Z,0.4
2022-10-14T08:33:06.286Z,0.2
2022-10-14T08:34:15.987Z,0.4
2022-10-14T08:35:25.703Z,0.3
2022-10-14T08:36:33.443Z,0.3
2022-10-14T08:37:43.135Z,0.3
2022-10-14T08:38:51.921Z,0.3
2022-10-14T08:40:00.615Z,0.3
2022-10-14T08:41:10.327Z,0.1
2022-10-14T08:42:20.398Z,0.3
2022-10-14T08:43:29.747Z,0.3
2022-10-14T08:44:38.491Z,0.2
2022-10-14T08:45:46.251Z,0.2
2022-10-14T08:46:55.974Z,0.2
2022-10-14T08:48:04.711Z,0.1
2022-10-14T08:49:13.410Z,0.2
2022-10-14T08:50:23.116Z,0.3
2022-10-14T08:51:30.786Z,0.1
2022-10-14T08:52:40.551Z,0.2
2022-10-14T08:53:50.247Z,0.1
2022-10-14T08:54:58.956Z,0.2
2022-10-14T08:56:08.710Z,0.1
2022-10-14T08:57:17.472Z,0.1
2022-10-14T08:58:27.238Z,0.3
2022-10-14T08:59:36.908Z,0.3
2022-10-14T09:00:44.633Z,0.2
2022-10-14T09:01:54.350Z,0.1
2022-10-14T09:03:03.170Z,0.1
2022-10-14T09:04:10.817Z,0.1
2022-10-14T09:05:20.444Z,0.1
2022-10-14T09:06:29.247Z,0.1
2022-10-14T09:07:38.028Z,0.1
2022-10-14T09:08:47.816Z,0
2022-10-14T09:09:56.532Z,0.2
2022-10-14T09:11:06.227Z,0.2
2022-10-14T09:12:15.286Z,0.2
2022-10-14T09:13:22.758Z,0
2022-10-14T09:14:32.441Z,0.1
2022-10-14T09:15:41.133Z,0.2
2022-10-14T09:16:51.925Z,0.1
2022-10-14T09:18:00.522Z,0.2
2022-10-14T09:19:09.257Z,0
2022-10-14T09:20:19.016Z,0.1
2022-10-14T09:21:34.166Z,0
2022-10-14T09:22:39.496Z,0.1
2022-10-14T09:23:49.222Z,0
2022-10-14T09:24:58.913Z,0
2022-10-14T09:26:08.667Z,0
2022-10-14T09:27:18.432Z,0.1
2022-10-14T09:28:27.085Z,0
2022-10-14T09:29:36.811Z,0
2022-10-14T09:30:46.521Z,0.1
2022-10-14T09:31:54.265Z,0.1
2022-10-14T09:33:04.022Z,0.1
2022-10-14T09:34:12.760Z,0
2022-10-14T09:35:22.492Z,0.3
2022-10-14T09:36:32.179Z,0.1
2022-10-14T09:37:39.868Z,0.1
2022-10-14T09:38:49.759Z,0
2022-10-14T09:39:58.523Z,0
2022-10-14T09:41:06.220Z,0.1
2022-10-14T09:42:15.992Z,0.1
2022-10-14T09:43:25.724Z,0
2022-10-14T09:44:34.406Z,0.1
2022-10-14T09:45:44.169Z,0.1
2022-10-14T09:46:52.803Z,0.1
2022-10-14T09:48:02.521Z,0.1
2022-10-14T09:49:12.277Z,0
2022-10-14T09:50:20.981Z,0.1
2022-10-14T09:51:30.647Z,0.1
2022-10-14T09:52:38.341Z,0.1
2022-10-14T09:53:47.019Z,0.1
2022-10-14T09:54:56.703Z,0.1
2022-10-14T09:56:05.688Z,0.1
2022-10-14T09:57:15.349Z,0.2
2022-10-14T09:58:23.940Z,0.3
2022-10-14T09:59:32.646Z,0.1
2022-10-14T10:00:42.356Z,0.1
2022-10-14T10:01:51.092Z,0
2022-10-14T10:02:59.768Z,0.2
2022-10-14T10:04:09.540Z,0.3
2022-10-14T10:05:19.238Z,0.1
2022-10-14T10:06:28.958Z,0.1
2022-10-14T10:07:38.732Z,0.3
2022-10-14T10:08:47.415Z,0.1
2022-10-14T10:09:57.134Z,0
2022-10-14T10:11:07.292Z,0
2022-10-14T10:12:15.486Z,0.1
2022-10-14T10:13:25.187Z,0.3
2022-10-14T10:14:32.916Z,0.1
2022-10-14T10:15:41.642Z,0.1
2022-10-14T10:18:01.023Z,0.1
2022-10-14T10:19:11.750Z,0.1
2022-10-14T10:20:21.436Z,0
2022-10-14T10:21:30.167Z,0.1
2022-10-14T10:22:39.813Z,0.1
2022-10-14T10:23:48.546Z,0.2
2022-10-14T10:24:58.278Z,0.3
2022-10-14T10:26:08.042Z,0.1
2022-10-14T10:27:15.743Z,0.2
2022-10-14T10:28:24.574Z,0
2022-10-14T10:29:35.194Z,0.1
2022-10-14T10:30:43.926Z,0
2022-10-14T10:31:53.667Z,0.1
2022-10-14T10:33:01.545Z,0.1
2022-10-14T10:34:11.291Z,0
2022-10-14T10:35:20.952Z,0.1
2022-10-14T10:36:30.695Z,0
2022-10-14T10:37:39.425Z,0
2022-10-14T10:38:49.170Z,0.1
2022-10-14T10:39:57.941Z,0
2022-10-14T10:41:07.679Z,0
2022-10-14T10:42:16.573Z,0.1
2022-10-14T10:43:24.362Z,0.2
2022-10-14T10:44:34.050Z,0.1
2022-10-14T10:45:42.729Z,0.1
2022-10-14T10:46:51.458Z,0
2022-10-14T10:48:01.170Z,0.3
2022-10-14T10:49:08.847Z,0
2022-10-14T10:50:18.582Z,0
2022-10-14T10:51:27.288Z,0.2
2022-10-14T10:52:36.946Z,0
2022-10-14T10:53:46.665Z,0.1
2022-10-14T10:54:55.385Z,0.1
2022-10-14T10:56:05.090Z,0
2022-10-14T10:57:14.763Z,0
2022-10-14T10:58:22.515Z,0
2022-10-14T10:59:32.398Z,0
2022-10-14T11:00:42.093Z,0.1
2022-10-14T11:01:50.818Z,0
2022-10-14T11:03:00.473Z,0.1
2022-10-14T11:04:08.163Z,0
2022-10-14T11:05:16.867Z,0.2
2022-10-14T11:06:26.610Z,0.1
2022-10-14T11:07:34.290Z,0
2022-10-14T11:08:44.045Z,0
2022-10-14T11:09:53.712Z,0.1
2022-10-14T11:11:02.437Z,0
2022-10-14T11:12:12.169Z,0
2022-10-14T11:13:21.951Z,0
2022-10-14T11:14:30.689Z,0
2022-10-14T11:15:40.383Z,0.2
2022-10-14T11:16:50.205Z,0.1
2022-10-14T11:17:59.895Z,0.2
2022-10-14T11:19:09.757Z,0.1
2022-10-14T11:20:17.346Z,0
2022-10-14T11:21:27.058Z,0.1
2022-10-14T11:22:36.876Z,0.1
2022-10-14T11:23:45.579Z,0
2022-10-14T11:24:55.317Z,0
2022-10-14T11:26:03.987Z,0.1
2022-10-14T11:27:13.675Z,0
2022-10-14T11:28:22.442Z,0
2022-10-14T11:29:31.106Z,0
2022-10-14T11:30:39.805Z,0
2022-10-14T11:31:48.557Z,0
2022-10-14T11:32:57.326Z,0
2022-10-14T11:34:06.070Z,0
2022-10-14T11:35:12.796Z,0.1
2022-10-14T11:36:22.594Z,0.1
2022-10-14T11:37:32.334Z,0.2
2022-10-14T11:38:42.081Z,0
2022-10-14T11:39:52.889Z,0
2022-10-14T11:41:01.566Z,0
2022-10-14T11:42:09.285Z,0
2022-10-14T11:43:18.970Z,0
2022-10-14T11:44:26.703Z,0.2
2022-10-14T11:45:36.403Z,0.1
2022-10-14T11:46:45.176Z,0.1
2022-10-14T11:47:53.858Z,0.1
2022-10-14T11:49:03.573Z,0.1
2022-10-14T11:50:11.254Z,0.1
2022-10-14T11:51:20.987Z,0.1
2022-10-14T11:52:30.702Z,0
2022-10-14T11:54:48.255Z,0.1
2022-10-14T11:55:57.848Z,0
2022-10-14T11:57:07.534Z,0.1
2022-10-14T11:58:17.257Z,0.1
2022-10-14T11:59:25.224Z,0.1
2022-10-14T12:00:34.992Z,0.1
2022-10-14T12:01:44.702Z,0
2022-10-14T12:02:54.508Z,0
2022-10-14T12:04:04.208Z,0
2022-10-14T12:05:12.934Z,0.1
2022-10-14T12:06:22.612Z,0
2022-10-14T12:07:31.337Z,0
2022-10-14T12:08:41.061Z,0.1
2022-10-14T12:09:52.531Z,0.2
2022-10-14T12:11:01.689Z,0
2022-10-14T12:12:11.380Z,0.1
2022-10-14T12:13:20.078Z,0
2022-10-14T12:14:29.846Z,0
2022-10-14T12:15:38.572Z,0
2022-10-14T12:16:47.354Z,0.1
2022-10-14T12:17:57.072Z,0.1
2022-10-14T12:19:05.751Z,0
2022-10-14T12:20:14.493Z,0
2022-10-14T12:21:24.217Z,0.2
2022-10-14T12:22:32.977Z,0
2022-10-14T12:23:41.616Z,0.1
2022-10-14T12:24:51.309Z,0.1
2022-10-14T12:26:01.050Z,0.1
2022-10-14T12:27:10.810Z,0.1
2022-10-14T12:28:20.555Z,0.2
2022-10-14T12:29:29.225Z,0
2022-10-14T12:30:38.941Z,0.2
2022-10-14T12:31:46.670Z,0.2
2022-10-14T12:32:55.341Z,0.2
2022-10-14T12:34:05.092Z,0.3
2022-10-14T12:35:13.773Z,0.1
2022-10-14T12:36:23.608Z,0.1
2022-10-14T12:37:33.481Z,0.1
2022-10-14T12:38:41.969Z,0.3
2022-10-14T12:39:51.720Z,0.2
2022-10-14T12:41:00.537Z,0.2
2022-10-14T12:42:09.247Z,0.2
2022-10-14T12:43:19.033Z,0.2
2022-10-14T12:44:26.722Z,0.4
2022-10-14T12:45:35.506Z,0.4
2022-10-14T12:46:44.130Z,0
2022-10-14T12:47:51.883Z,0.1
2022-10-14T12:49:01.631Z,0.2
2022-10-14T12:50:09.352Z,0.3
2022-10-14T12:51:18.103Z,0.1
2022-10-14T12:52:27.814Z,0.3
2022-10-14T12:53:36.603Z,0.4
2022-10-14T12:54:46.450Z,0.2
2022-10-14T12:55:55.181Z,0.2
2022-10-14T12:57:02.850Z,0.1
2022-10-14T12:58:12.582Z,0.1
2022-10-14T12:59:20.298Z,0.1
2022-10-14T13:00:28.954Z,0
2022-10-14T13:01:38.674Z,0.1
2022-10-14T13:02:47.303Z,0.1
2022-10-14T13:03:57.065Z,0.1
2022-10-14T13:05:05.735Z,0.2
2022-10-14T13:06:13.602Z,0.1
2022-10-14T13:07:39.565Z,0.1
2022-10-14T13:08:31.983Z,0.1
2022-10-14T13:09:40.723Z,0.1
2022-10-14T13:10:50.486Z,0.1
2022-10-14T13:11:59.238Z,0.1
2022-10-14T13:13:09.070Z,0.1
2022-10-14T13:14:17.650Z,0.2
2022-10-14T13:15:26.349Z,0.2
2022-10-14T13:16:35.995Z,0.2
2022-10-14T13:17:44.738Z,0.2
2022-10-14T13:18:53.488Z,0
2022-10-14T13:20:03.238Z,0.1
2022-10-14T13:21:11.963Z,0.1
2022-10-14T13:22:21.677Z,0.2
2022-10-14T13:23:30.456Z,0.2
2022-10-14T13:24:40.159Z,0.1
2022-10-14T13:25:49.976Z,0.2
2022-10-14T13:26:56.735Z,0.2
2022-10-14T13:28:05.492Z,0.1
2022-10-14T13:29:15.213Z,0.2
2022-10-14T13:30:25.104Z,0.2
2022-10-14T13:31:34.872Z,0.1
2022-10-14T13:32:44.516Z,0.1
2022-10-14T13:33:52.242Z,0.1
2022-10-14T13:35:01.957Z,0.2
2022-10-14T13:36:10.666Z,0.2
2022-10-14T13:37:19.341Z,0.1
2022-10-14T13:38:29.075Z,0.2
2022-10-14T13:39:38.754Z,0.1
2022-10-14T13:40:48.513Z,0.3
2022-10-14T13:41:57.371Z,0.1
2022-10-14T13:43:06.372Z,0.2
2022-10-14T13:44:16.632Z,0.2
2022-10-14T13:45:25.321Z,0.2
2022-10-14T13:46:34.147Z,0.1
2022-10-14T13:47:43.956Z,0.2
2022-10-14T13:48:53.603Z,0.1
2022-10-14T13:50:03.369Z,0.2
2022-10-14T13:51:23.840Z,0.2
2022-10-14T13:52:21.253Z,0.3
2022-10-14T13:53:30.707Z,0.4
2022-10-14T13:54:38.362Z,0.2
2022-10-14T13:55:53.187Z,0.1
2022-10-14T13:57:12.573Z,0.1
2022-10-14T13:58:12.887Z,0.3
2022-10-14T13:59:29.431Z,0.3
2022-10-14T14:00:46.126Z,0.4
2022-10-14T14:01:40.591Z,0.2
2022-10-14T14:02:55.066Z,0.1
2022-10-14T14:04:00.019Z,0.2
2022-10-14T14:05:10.043Z,0.3
2022-10-14T14:06:19.763Z,0.3
2022-10-14T14:08:41.784Z,0.3
2022-10-14T14:09:51.106Z,0.2
2022-10-14T14:11:17.966Z,0.2
2022-10-14T14:12:11.753Z,0.1
2022-10-14T14:13:19.470Z,0.5
2022-10-14T14:14:28.257Z,0.2
2022-10-14T14:15:38.030Z,0.2
2022-10-14T14:17:57.515Z,0.3
2022-10-14T14:19:09.436Z,0.1
2022-10-14T14:20:16.869Z,0.1
2022-10-14T14:21:26.849Z,0.2
2022-10-14T14:22:35.659Z,0.1
2022-10-14T14:23:44.405Z,0.4
2022-10-14T14:24:54.078Z,0.1
2022-10-14T14:26:18.694Z,0.1
2022-10-14T14:27:13.476Z,0.3
2022-10-14T14:28:23.207Z,0.5
2022-10-14T14:29:30.931Z,0.3
2022-10-14T14:30:39.674Z,0.2
2022-10-14T14:33:00.077Z,0.3
2022-10-14T14:34:09.768Z,0.4
2022-10-14T14:35:20.654Z,0.3
2022-10-14T14:36:46.869Z,0.4
2022-10-14T14:37:54.878Z,0.3
2022-10-14T14:38:49.557Z,0.5
2022-10-14T14:39:59.289Z,0.5
2022-10-14T14:41:08.975Z,0.3
2022-10-14T14:42:16.686Z,0.3
2022-10-14T14:43:28.932Z,0.2
2022-10-14T14:44:36.115Z,0.2
2022-10-14T14:45:44.787Z,0.3
2022-10-14T14:46:54.517Z,0.2
2022-10-14T14:48:04.330Z,0.3
2022-10-14T14:49:12.859Z,0.3
2022-10-14T14:50:30.270Z,0.3
2022-10-14T14:51:31.165Z,0.4
2022-10-14T14:52:40.865Z,0.6
2022-10-14T14:53:49.523Z,0.5
2022-10-14T14:54:59.187Z,0.4
2022-10-14T14:56:10.359Z,0.4
2022-10-14T14:57:18.674Z,0.4
2022-10-14T14:58:26.255Z,0.4
2022-10-14T14:59:35.915Z,0.5
2022-10-14T15:00:43.636Z,0.4
2022-10-14T15:01:53.407Z,0.5
2022-10-14T15:03:03.071Z,0.4
2022-10-14T15:04:14.636Z,0.5
2022-10-14T15:05:23.453Z,0.4
2022-10-14T15:06:33.256Z,0.3
2022-10-14T15:07:43.027Z,0.4
2022-10-14T15:08:52.693Z,0.2
2022-10-14T15:10:00.353Z,0.3
2022-10-14T15:11:10.077Z,0.4
2022-10-14T15:12:17.694Z,0.5
2022-10-14T15:13:26.444Z,0.3
2022-10-14T15:14:36.113Z,0.4
2022-10-14T15:15:44.783Z,0.5
2022-10-14T15:16:53.478Z,0.5
2022-10-14T15:18:02.183Z,0.5
2022-10-14T15:19:10.919Z,0.8
2022-10-14T15:20:20.747Z,0.8
2022-10-14T15:21:29.378Z,0.8
2022-10-14T15:22:38.087Z,1
2022-10-14T15:23:47.832Z,0.8
2022-10-14T15:24:55.556Z,0.9
2022-10-14T15:26:04.228Z,0.8
2022-10-14T15:27:13.895Z,0.8
2022-10-14T15:28:21.645Z,1
2022-10-14T15:29:31.267Z,0.9
2022-10-14T15:30:41.003Z,0.7
2022-10-14T15:31:49.657Z,0.6
2022-10-14T15:32:59.431Z,0.7
2022-10-14T15:34:08.123Z,0.6
2022-10-14T15:35:17.773Z,0.8
2022-10-14T15:36:27.501Z,0.7
2022-10-14T15:37:35.160Z,0.9
2022-10-14T15:38:44.849Z,0.9
2022-10-14T15:39:54.543Z,0.9
2022-10-14T15:41:02.189Z,0.8
2022-10-14T15:42:11.881Z,0.8
2022-10-14T15:43:21.590Z,0.9
2022-10-14T15:44:31.274Z,0.6
2022-10-14T15:45:40.956Z,0.6
2022-10-14T15:46:49.637Z,0.8
2022-10-14T15:47:59.342Z,0.7
2022-10-14T15:49:09.036Z,0.8
2022-10-14T15:50:17.746Z,0.7
2022-10-14T15:51:27.417Z,0.7
2022-10-14T15:52:36.245Z,0.8
2022-10-14T15:53:44.931Z,0.7
2022-10-14T15:54:54.626Z,0.7
2022-10-14T15:56:02.356Z,0.7
2022-10-14T15:57:12.632Z,1
2022-10-14T15:58:20.680Z,0.8
2022-10-14T15:59:29.399Z,0.9
2022-10-14T16:00:39.110Z,0.7
2022-10-14T16:01:47.848Z,0.8
2022-10-14T16:02:57.533Z,0.6
2022-10-14T16:04:07.305Z,0.6